sensor_id;sensor_type;location;lat;lon;timestamp;P1;durP1;ratioP1;P2;durP2;ratioP2
12290;SDS011;6208;48.956;9.076;2023-05-29T00:02:16;5.18;;;4.68;;
12290;SDS011;6208;48.956;9.076;2023-05-29T00:05:01;5.43;;;4.25;;
12290;SDS011;6208;48.956;9.076;2023-05-29T00:07:46;5.13;;;4.50;;
12290;SDS011;6208;48.956;9.076;2023-05-29T00:10:32;7.35;;;4.63;;
12290;SDS011;6208;48.956;9.076;2023-05-29T00:13:16;4.35;;;3.95;;
12290;SDS011;6208;48.956;9.076;2023-05-29T00:16:01;6.05;;;4.22;;
12290;SDS011;6208;48.956;9.076;2023-05-29T00:18:46;6.43;;;4.43;;
12290;SDS011;6208;48.956;9.076;2023-05-29T00:21:31;7.40;;;5.30;;
12290;SDS011;6208;48.956;9.076;2023-05-29T00:24:15;5.40;;;4.22;;
12290;SDS011;6208;48.956;9.076;2023-05-29T00:27:00;4.57;;;4.18;;
12290;SDS011;6208;48.956;9.076;2023-05-29T00:29:45;5.28;;;4.70;;
12290;SDS011;6208;48.956;9.076;2023-05-29T00:32:30;8.25;;;4.45;;
12290;SDS011;6208;48.956;9.076;2023-05-29T00:35:14;8.15;;;4.75;;
12290;SDS011;6208;48.956;9.076;2023-05-29T00:37:58;5.50;;;5.00;;
12290;SDS011;6208;48.956;9.076;2023-05-29T00:40:43;8.82;;;5.22;;
12290;SDS011;6208;48.956;9.076;2023-05-29T00:43:27;4.72;;;4.30;;
12290;SDS011;6208;48.956;9.076;2023-05-29T00:46:13;7.03;;;4.82;;
12290;SDS011;6208;48.956;9.076;2023-05-29T00:48:59;5.68;;;4.70;;
12290;SDS011;6208;48.956;9.076;2023-05-29T00:51:44;9.25;;;5.68;;
12290;SDS011;6208;48.956;9.076;2023-05-29T00:54:29;5.65;;;4.65;;
12290;SDS011;6208;48.956;9.076;2023-05-29T00:57:14;6.28;;;4.72;;
12290;SDS011;6208;48.956;9.076;2023-05-29T01:00:02;9.30;;;5.10;;
12290;SDS011;6208;48.956;9.076;2023-05-29T01:02:51;9.07;;;5.90;;
12290;SDS011;6208;48.956;9.076;2023-05-29T01:05:36;9.52;;;4.93;;
12290;SDS011;6208;48.956;9.076;2023-05-29T01:08:21;5.32;;;4.82;;
12290;SDS011;6208;48.956;9.076;2023-05-29T01:11:08;5.50;;;4.70;;
12290;SDS011;6208;48.956;9.076;2023-05-29T01:14:08;4.75;;;4.38;;
12290;SDS011;6208;48.956;9.076;2023-05-29T01:17:06;5.93;;;4.50;;
12290;SDS011;6208;48.956;9.076;2023-05-29T01:29:26;4.95;;;3.90;;
12290;SDS011;6208;48.956;9.076;2023-05-29T01:32:13;11.70;;;3.75;;
12290;SDS011;6208;48.956;9.076;2023-05-29T01:34:57;6.32;;;4.15;;
12290;SDS011;6208;48.956;9.076;2023-05-29T01:37:42;5.28;;;4.15;;
12290;SDS011;6208;48.956;9.076;2023-05-29T01:40:27;4.70;;;3.95;;
12290;SDS011;6208;48.956;9.076;2023-05-29T01:43:12;5.22;;;4.38;;
12290;SDS011;6208;48.956;9.076;2023-05-29T01:45:57;3.72;;;3.50;;
12290;SDS011;6208;48.956;9.076;2023-05-29T01:48:42;6.32;;;3.80;;
12290;SDS011;6208;48.956;9.076;2023-05-29T01:51:26;3.95;;;3.42;;
12290;SDS011;6208;48.956;9.076;2023-05-29T01:54:11;5.78;;;3.97;;
12290;SDS011;6208;48.956;9.076;2023-05-29T01:56:55;6.30;;;4.07;;
12290;SDS011;6208;48.956;9.076;2023-05-29T01:59:40;6.28;;;3.92;;
12290;SDS011;6208;48.956;9.076;2023-05-29T02:02:25;3.50;;;3.20;;
12290;SDS011;6208;48.956;9.076;2023-05-29T02:05:10;5.03;;;3.63;;
12290;SDS011;6208;48.956;9.076;2023-05-29T02:07:55;4.97;;;3.92;;
12290;SDS011;6208;48.956;9.076;2023-05-29T02:10:39;5.78;;;4.13;;
12290;SDS011;6208;48.956;9.076;2023-05-29T02:13:23;4.30;;;3.75;;
12290;SDS011;6208;48.956;9.076;2023-05-29T02:16:07;5.95;;;4.22;;
12290;SDS011;6208;48.956;9.076;2023-05-29T02:18:52;8.60;;;4.60;;
12290;SDS011;6208;48.956;9.076;2023-05-29T02:21:39;4.90;;;4.25;;
12290;SDS011;6208;48.956;9.076;2023-05-29T02:24:27;4.35;;;3.95;;
12290;SDS011;6208;48.956;9.076;2023-05-29T02:27:11;4.90;;;4.38;;
12290;SDS011;6208;48.956;9.076;2023-05-29T02:29:55;4.47;;;4.13;;
12290;SDS011;6208;48.956;9.076;2023-05-29T02:32:40;4.22;;;3.83;;
12290;SDS011;6208;48.956;9.076;2023-05-29T02:35:24;4.43;;;3.95;;
12290;SDS011;6208;48.956;9.076;2023-05-29T02:38:08;6.78;;;4.60;;
12290;SDS011;6208;48.956;9.076;2023-05-29T02:40:53;5.05;;;3.83;;
12290;SDS011;6208;48.956;9.076;2023-05-29T02:43:37;6.55;;;4.38;;
12290;SDS011;6208;48.956;9.076;2023-05-29T02:46:21;4.90;;;3.90;;
12290;SDS011;6208;48.956;9.076;2023-05-29T02:49:06;5.60;;;4.32;;
12290;SDS011;6208;48.956;9.076;2023-05-29T02:51:50;4.60;;;4.20;;
12290;SDS011;6208;48.956;9.076;2023-05-29T02:54:40;5.13;;;4.63;;
12290;SDS011;6208;48.956;9.076;2023-05-29T02:57:24;5.35;;;4.85;;
12290;SDS011;6208;48.956;9.076;2023-05-29T03:00:08;5.07;;;3.97;;
12290;SDS011;6208;48.956;9.076;2023-05-29T03:02:54;5.07;;;4.68;;
12290;SDS011;6208;48.956;9.076;2023-05-29T03:05:38;5.32;;;4.82;;
12290;SDS011;6208;48.956;9.076;2023-05-29T03:08:22;6.05;;;4.65;;
12290;SDS011;6208;48.956;9.076;2023-05-29T03:11:07;7.35;;;4.93;;
12290;SDS011;6208;48.956;9.076;2023-05-29T03:13:54;4.70;;;4.30;;
12290;SDS011;6208;48.956;9.076;2023-05-29T03:16:38;5.72;;;4.60;;
12290;SDS011;6208;48.956;9.076;2023-05-29T03:19:24;5.63;;;4.22;;
12290;SDS011;6208;48.956;9.076;2023-05-29T03:22:08;4.97;;;4.53;;
12290;SDS011;6208;48.956;9.076;2023-05-29T03:24:52;4.55;;;4.15;;
12290;SDS011;6208;48.956;9.076;2023-05-29T03:27:36;4.55;;;4.15;;
12290;SDS011;6208;48.956;9.076;2023-05-29T03:30:20;5.68;;;4.68;;
12290;SDS011;6208;48.956;9.076;2023-05-29T03:33:04;4.22;;;3.80;;
12290;SDS011;6208;48.956;9.076;2023-05-29T03:35:49;5.82;;;4.28;;
12290;SDS011;6208;48.956;9.076;2023-05-29T03:38:33;3.97;;;3.67;;
12290;SDS011;6208;48.956;9.076;2023-05-29T03:41:17;4.13;;;3.72;;
12290;SDS011;6208;48.956;9.076;2023-05-29T03:44:01;5.80;;;4.35;;
12290;SDS011;6208;48.956;9.076;2023-05-29T03:46:45;5.22;;;4.53;;
12290;SDS011;6208;48.956;9.076;2023-05-29T03:49:29;5.55;;;4.38;;
12290;SDS011;6208;48.956;9.076;2023-05-29T03:52:14;3.72;;;3.42;;
12290;SDS011;6208;48.956;9.076;2023-05-29T03:54:58;5.10;;;4.00;;
12290;SDS011;6208;48.956;9.076;2023-05-29T03:57:42;4.45;;;4.00;;
12290;SDS011;6208;48.956;9.076;2023-05-29T04:00:27;4.38;;;3.97;;
12290;SDS011;6208;48.956;9.076;2023-05-29T04:03:11;7.07;;;3.70;;
12290;SDS011;6208;48.956;9.076;2023-05-29T04:05:55;5.32;;;3.88;;
12290;SDS011;6208;48.956;9.076;2023-05-29T04:08:39;4.28;;;3.88;;
12290;SDS011;6208;48.956;9.076;2023-05-29T04:11:23;8.38;;;4.10;;
12290;SDS011;6208;48.956;9.076;2023-05-29T04:14:07;5.32;;;3.70;;
12290;SDS011;6208;48.956;9.076;2023-05-29T04:16:52;4.32;;;3.80;;
12290;SDS011;6208;48.956;9.076;2023-05-29T04:19:37;4.05;;;3.65;;
12290;SDS011;6208;48.956;9.076;2023-05-29T04:22:21;3.58;;;3.28;;
12290;SDS011;6208;48.956;9.076;2023-05-29T04:25:05;4.90;;;3.47;;
12290;SDS011;6208;48.956;9.076;2023-05-29T04:27:49;4.95;;;3.72;;
12290;SDS011;6208;48.956;9.076;2023-05-29T04:30:33;5.78;;;3.83;;
12290;SDS011;6208;48.956;9.076;2023-05-29T04:33:18;4.65;;;3.92;;
12290;SDS011;6208;48.956;9.076;2023-05-29T04:36:04;4.68;;;3.60;;
12290;SDS011;6208;48.956;9.076;2023-05-29T04:38:48;4.78;;;3.65;;
12290;SDS011;6208;48.956;9.076;2023-05-29T04:41:35;7.05;;;4.10;;
12290;SDS011;6208;48.956;9.076;2023-05-29T04:44:19;4.78;;;4.00;;
12290;SDS011;6208;48.956;9.076;2023-05-29T04:47:03;7.90;;;4.50;;
12290;SDS011;6208;48.956;9.076;2023-05-29T04:49:48;4.55;;;3.65;;
12290;SDS011;6208;48.956;9.076;2023-05-29T04:52:33;4.18;;;3.75;;
12290;SDS011;6208;48.956;9.076;2023-05-29T04:55:20;4.05;;;3.50;;
12290;SDS011;6208;48.956;9.076;2023-05-29T04:58:04;6.22;;;3.72;;
12290;SDS011;6208;48.956;9.076;2023-05-29T05:00:48;4.30;;;3.90;;
12290;SDS011;6208;48.956;9.076;2023-05-29T05:03:33;6.50;;;3.28;;
12290;SDS011;6208;48.956;9.076;2023-05-29T05:06:17;5.93;;;3.42;;
12290;SDS011;6208;48.956;9.076;2023-05-29T05:09:02;5.88;;;4.05;;
12290;SDS011;6208;48.956;9.076;2023-05-29T05:11:46;5.22;;;3.78;;
12290;SDS011;6208;48.956;9.076;2023-05-29T05:14:30;5.47;;;3.60;;
12290;SDS011;6208;48.956;9.076;2023-05-29T05:17:14;4.35;;;3.88;;
12290;SDS011;6208;48.956;9.076;2023-05-29T05:19:58;5.13;;;3.85;;
12290;SDS011;6208;48.956;9.076;2023-05-29T05:22:42;4.40;;;3.70;;
12290;SDS011;6208;48.956;9.076;2023-05-29T05:25:26;4.10;;;3.80;;
12290;SDS011;6208;48.956;9.076;2023-05-29T05:28:10;5.60;;;3.72;;
12290;SDS011;6208;48.956;9.076;2023-05-29T05:30:54;5.43;;;3.92;;
12290;SDS011;6208;48.956;9.076;2023-05-29T05:33:38;4.05;;;3.45;;
12290;SDS011;6208;48.956;9.076;2023-05-29T05:36:22;4.05;;;3.53;;
12290;SDS011;6208;48.956;9.076;2023-05-29T05:39:07;6.20;;;3.78;;
12290;SDS011;6208;48.956;9.076;2023-05-29T05:41:51;6.43;;;4.32;;
12290;SDS011;6208;48.956;9.076;2023-05-29T05:44:36;4.47;;;3.50;;
12290;SDS011;6208;48.956;9.076;2023-05-29T05:47:20;4.00;;;3.70;;
12290;SDS011;6208;48.956;9.076;2023-05-29T05:50:05;5.00;;;4.20;;
12290;SDS011;6208;48.956;9.076;2023-05-29T05:52:49;4.13;;;3.33;;
12290;SDS011;6208;48.956;9.076;2023-05-29T05:55:34;3.78;;;3.47;;
12290;SDS011;6208;48.956;9.076;2023-05-29T05:58:18;3.55;;;3.33;;
12290;SDS011;6208;48.956;9.076;2023-05-29T06:01:02;4.72;;;3.80;;
12290;SDS011;6208;48.956;9.076;2023-05-29T06:03:46;5.07;;;4.07;;
12290;SDS011;6208;48.956;9.076;2023-05-29T06:06:30;4.25;;;3.85;;
12290;SDS011;6208;48.956;9.076;2023-05-29T06:09:15;6.15;;;3.55;;
12290;SDS011;6208;48.956;9.076;2023-05-29T06:12:00;6.53;;;3.60;;
12290;SDS011;6208;48.956;9.076;2023-05-29T06:14:45;4.50;;;3.70;;
12290;SDS011;6208;48.956;9.076;2023-05-29T06:17:29;5.35;;;4.00;;
12290;SDS011;6208;48.956;9.076;2023-05-29T06:20:13;4.22;;;3.85;;
12290;SDS011;6208;48.956;9.076;2023-05-29T06:22:57;5.10;;;3.60;;
12290;SDS011;6208;48.956;9.076;2023-05-29T06:25:41;3.40;;;3.10;;
12290;SDS011;6208;48.956;9.076;2023-05-29T06:28:26;3.97;;;3.67;;
12290;SDS011;6208;48.956;9.076;2023-05-29T06:31:11;6.00;;;4.10;;
12290;SDS011;6208;48.956;9.076;2023-05-29T06:33:55;4.45;;;3.78;;
12290;SDS011;6208;48.956;9.076;2023-05-29T06:36:40;5.22;;;3.55;;
12290;SDS011;6208;48.956;9.076;2023-05-29T06:39:25;4.10;;;3.75;;
12290;SDS011;6208;48.956;9.076;2023-05-29T06:42:09;5.63;;;3.90;;
12290;SDS011;6208;48.956;9.076;2023-05-29T06:44:54;6.47;;;3.78;;
12290;SDS011;6208;48.956;9.076;2023-05-29T06:47:38;5.97;;;4.03;;
12290;SDS011;6208;48.956;9.076;2023-05-29T06:50:23;4.00;;;3.60;;
12290;SDS011;6208;48.956;9.076;2023-05-29T06:53:08;4.15;;;3.45;;
12290;SDS011;6208;48.956;9.076;2023-05-29T06:55:52;4.82;;;3.90;;
12290;SDS011;6208;48.956;9.076;2023-05-29T06:58:37;4.32;;;3.53;;
12290;SDS011;6208;48.956;9.076;2023-05-29T07:01:21;5.38;;;3.75;;
12290;SDS011;6208;48.956;9.076;2023-05-29T07:04:07;3.92;;;3.15;;
12290;SDS011;6208;48.956;9.076;2023-05-29T07:06:51;3.97;;;3.38;;
12290;SDS011;6208;48.956;9.076;2023-05-29T07:09:36;6.38;;;4.05;;
12290;SDS011;6208;48.956;9.076;2023-05-29T07:12:22;4.07;;;3.67;;
12290;SDS011;6208;48.956;9.076;2023-05-29T07:15:07;6.05;;;3.75;;
12290;SDS011;6208;48.956;9.076;2023-05-29T07:17:51;7.20;;;3.40;;
12290;SDS011;6208;48.956;9.076;2023-05-29T07:20:36;4.53;;;3.65;;
12290;SDS011;6208;48.956;9.076;2023-05-29T07:23:20;3.90;;;3.50;;
12290;SDS011;6208;48.956;9.076;2023-05-29T07:26:04;7.22;;;3.90;;
12290;SDS011;6208;48.956;9.076;2023-05-29T07:28:49;6.50;;;3.85;;
12290;SDS011;6208;48.956;9.076;2023-05-29T07:31:33;4.78;;;3.70;;
12290;SDS011;6208;48.956;9.076;2023-05-29T07:34:18;4.45;;;3.60;;
12290;SDS011;6208;48.956;9.076;2023-05-29T07:37:04;6.07;;;3.50;;
12290;SDS011;6208;48.956;9.076;2023-05-29T07:39:50;4.68;;;3.90;;
12290;SDS011;6208;48.956;9.076;2023-05-29T07:42:34;4.00;;;3.60;;
12290;SDS011;6208;48.956;9.076;2023-05-29T07:45:19;4.70;;;4.10;;
12290;SDS011;6208;48.956;9.076;2023-05-29T07:48:03;4.00;;;3.60;;
12290;SDS011;6208;48.956;9.076;2023-05-29T07:50:48;4.40;;;4.00;;
12290;SDS011;6208;48.956;9.076;2023-05-29T07:53:33;4.25;;;3.63;;
12290;SDS011;6208;48.956;9.076;2023-05-29T07:56:17;25.40;;;5.13;;
12290;SDS011;6208;48.956;9.076;2023-05-29T07:59:01;7.68;;;4.55;;
12290;SDS011;6208;48.956;9.076;2023-05-29T08:01:46;6.68;;;3.65;;
12290;SDS011;6208;48.956;9.076;2023-05-29T08:04:31;4.20;;;3.67;;
12290;SDS011;6208;48.956;9.076;2023-05-29T08:07:16;6.65;;;4.22;;
12290;SDS011;6208;48.956;9.076;2023-05-29T08:10:00;7.63;;;4.88;;
12290;SDS011;6208;48.956;9.076;2023-05-29T08:12:45;6.28;;;3.85;;
12290;SDS011;6208;48.956;9.076;2023-05-29T08:15:29;4.22;;;3.33;;
12290;SDS011;6208;48.956;9.076;2023-05-29T08:18:15;3.47;;;3.15;;
12290;SDS011;6208;48.956;9.076;2023-05-29T08:21:02;4.18;;;3.35;;
12290;SDS011;6208;48.956;9.076;2023-05-29T08:23:46;4.25;;;3.90;;
12290;SDS011;6208;48.956;9.076;2023-05-29T08:26:31;6.38;;;3.65;;
12290;SDS011;6208;48.956;9.076;2023-05-29T08:29:15;4.13;;;3.72;;
12290;SDS011;6208;48.956;9.076;2023-05-29T08:32:00;5.97;;;4.30;;
12290;SDS011;6208;48.956;9.076;2023-05-29T08:34:45;4.88;;;3.85;;
12290;SDS011;6208;48.956;9.076;2023-05-29T08:37:30;4.30;;;3.30;;
12290;SDS011;6208;48.956;9.076;2023-05-29T08:40:14;5.68;;;4.28;;
12290;SDS011;6208;48.956;9.076;2023-05-29T08:43:04;5.25;;;3.33;;
12290;SDS011;6208;48.956;9.076;2023-05-29T08:45:59;4.22;;;3.55;;
12290;SDS011;6208;48.956;9.076;2023-05-29T08:48:48;4.97;;;4.57;;
12290;SDS011;6208;48.956;9.076;2023-05-29T08:51:37;5.18;;;4.15;;
12290;SDS011;6208;48.956;9.076;2023-05-29T08:54:24;6.40;;;4.13;;
12290;SDS011;6208;48.956;9.076;2023-05-29T08:57:10;11.15;;;6.85;;
12290;SDS011;6208;48.956;9.076;2023-05-29T08:59:56;4.07;;;3.78;;
12290;SDS011;6208;48.956;9.076;2023-05-29T09:02:41;4.78;;;3.78;;
12290;SDS011;6208;48.956;9.076;2023-05-29T09:05:29;9.80;;;4.22;;
12290;SDS011;6208;48.956;9.076;2023-05-29T09:08:14;6.57;;;4.20;;
12290;SDS011;6208;48.956;9.076;2023-05-29T09:10:58;4.43;;;3.90;;
12290;SDS011;6208;48.956;9.076;2023-05-29T09:13:45;7.47;;;3.95;;
12290;SDS011;6208;48.956;9.076;2023-05-29T09:16:30;6.28;;;4.20;;
12290;SDS011;6208;48.956;9.076;2023-05-29T09:19:14;5.57;;;3.55;;
12290;SDS011;6208;48.956;9.076;2023-05-29T09:22:01;4.43;;;4.03;;
12290;SDS011;6208;48.956;9.076;2023-05-29T09:24:47;4.38;;;3.97;;
12290;SDS011;6208;48.956;9.076;2023-05-29T09:27:32;6.35;;;4.25;;
12290;SDS011;6208;48.956;9.076;2023-05-29T09:33:28;3.80;;;3.45;;
12290;SDS011;6208;48.956;9.076;2023-05-29T09:36:19;4.13;;;3.53;;
12290;SDS011;6208;48.956;9.076;2023-05-29T09:39:06;4.05;;;3.75;;
12290;SDS011;6208;48.956;9.076;2023-05-29T09:41:53;6.25;;;4.18;;
12290;SDS011;6208;48.956;9.076;2023-05-29T09:44:39;4.68;;;3.45;;
12290;SDS011;6208;48.956;9.076;2023-05-29T09:47:24;4.50;;;3.78;;
12290;SDS011;6208;48.956;9.076;2023-05-29T09:50:17;4.28;;;3.70;;
12290;SDS011;6208;48.956;9.076;2023-05-29T09:53:04;6.55;;;3.40;;
12290;SDS011;6208;48.956;9.076;2023-05-29T09:56:09;5.80;;;4.10;;
12290;SDS011;6208;48.956;9.076;2023-05-29T09:58:56;4.20;;;3.83;;
12290;SDS011;6208;48.956;9.076;2023-05-29T10:01:41;4.93;;;3.60;;
12290;SDS011;6208;48.956;9.076;2023-05-29T10:04:27;4.55;;;3.72;;
12290;SDS011;6208;48.956;9.076;2023-05-29T10:07:28;18.10;;;5.28;;
12290;SDS011;6208;48.956;9.076;2023-05-29T10:10:15;6.13;;;3.95;;
12290;SDS011;6208;48.956;9.076;2023-05-29T10:13:02;5.15;;;4.47;;
12290;SDS011;6208;48.956;9.076;2023-05-29T10:15:47;7.97;;;3.92;;
12290;SDS011;6208;48.956;9.076;2023-05-29T10:18:39;5.55;;;4.20;;
12290;SDS011;6208;48.956;9.076;2023-05-29T10:21:27;4.05;;;3.40;;
12290;SDS011;6208;48.956;9.076;2023-05-29T10:24:12;5.47;;;3.72;;
12290;SDS011;6208;48.956;9.076;2023-05-29T10:26:57;4.53;;;3.58;;
12290;SDS011;6208;48.956;9.076;2023-05-29T10:29:52;5.28;;;3.55;;
12290;SDS011;6208;48.956;9.076;2023-05-29T10:32:59;4.13;;;3.45;;
12290;SDS011;6208;48.956;9.076;2023-05-29T10:39:00;4.60;;;2.90;;
12290;SDS011;6208;48.956;9.076;2023-05-29T10:41:46;3.92;;;3.50;;
12290;SDS011;6208;48.956;9.076;2023-05-29T10:47:22;3.65;;;3.35;;
12290;SDS011;6208;48.956;9.076;2023-05-29T10:50:07;4.43;;;4.03;;
12290;SDS011;6208;48.956;9.076;2023-05-29T10:52:51;3.67;;;3.13;;
12290;SDS011;6208;48.956;9.076;2023-05-29T10:55:39;4.57;;;3.38;;
12290;SDS011;6208;48.956;9.076;2023-05-29T10:58:25;5.38;;;3.53;;
12290;SDS011;6208;48.956;9.076;2023-05-29T11:01:10;4.07;;;3.30;;
12290;SDS011;6208;48.956;9.076;2023-05-29T11:07:31;3.50;;;3.20;;
12290;SDS011;6208;48.956;9.076;2023-05-29T11:10:41;5.20;;;3.80;;
12290;SDS011;6208;48.956;9.076;2023-05-29T11:13:39;4.38;;;3.45;;
12290;SDS011;6208;48.956;9.076;2023-05-29T11:19:09;3.25;;;3.03;;
12290;SDS011;6208;48.956;9.076;2023-05-29T11:22:08;4.95;;;3.58;;
12290;SDS011;6208;48.956;9.076;2023-05-29T11:24:58;7.95;;;3.63;;
12290;SDS011;6208;48.956;9.076;2023-05-29T15:27:37;3.33;;;2.70;;
12290;SDS011;6208;48.956;9.076;2023-05-29T15:30:22;4.30;;;2.63;;
12290;SDS011;6208;48.956;9.076;2023-05-29T15:33:07;2.85;;;2.60;;
12290;SDS011;6208;48.956;9.076;2023-05-29T15:35:53;3.22;;;3.03;;
12290;SDS011;6208;48.956;9.076;2023-05-29T15:38:37;3.20;;;2.70;;
12290;SDS011;6208;48.956;9.076;2023-05-29T15:41:22;2.85;;;2.65;;
12290;SDS011;6208;48.956;9.076;2023-05-29T15:44:12;3.58;;;2.97;;
12290;SDS011;6208;48.956;9.076;2023-05-29T15:46:56;3.08;;;2.85;;
12290;SDS011;6208;48.956;9.076;2023-05-29T15:49:41;5.05;;;2.88;;
12290;SDS011;6208;48.956;9.076;2023-05-29T15:52:25;3.00;;;2.80;;
12290;SDS011;6208;48.956;9.076;2023-05-29T15:55:09;5.85;;;2.97;;
12290;SDS011;6208;48.956;9.076;2023-05-29T15:57:54;3.10;;;2.78;;
12290;SDS011;6208;48.956;9.076;2023-05-29T16:00:38;2.92;;;2.83;;
12290;SDS011;6208;48.956;9.076;2023-05-29T16:03:22;3.45;;;2.85;;
12290;SDS011;6208;48.956;9.076;2023-05-29T16:06:07;3.55;;;3.22;;
12290;SDS011;6208;48.956;9.076;2023-05-29T16:08:51;2.90;;;2.70;;
12290;SDS011;6208;48.956;9.076;2023-05-29T16:11:36;3.92;;;3.13;;
12290;SDS011;6208;48.956;9.076;2023-05-29T16:14:20;3.10;;;2.90;;
12290;SDS011;6208;48.956;9.076;2023-05-29T16:17:04;3.38;;;3.10;;
12290;SDS011;6208;48.956;9.076;2023-05-29T16:19:48;3.15;;;2.90;;
12290;SDS011;6208;48.956;9.076;2023-05-29T16:22:38;3.63;;;3.20;;
12290;SDS011;6208;48.956;9.076;2023-05-29T16:25:23;3.45;;;3.22;;
12290;SDS011;6208;48.956;9.076;2023-05-29T16:28:07;5.07;;;3.22;;
12290;SDS011;6208;48.956;9.076;2023-05-29T16:30:52;3.30;;;3.05;;
12290;SDS011;6208;48.956;9.076;2023-05-29T16:33:36;3.10;;;2.78;;
12290;SDS011;6208;48.956;9.076;2023-05-29T16:36:21;3.05;;;2.85;;
12290;SDS011;6208;48.956;9.076;2023-05-29T16:39:06;3.03;;;2.80;;
12290;SDS011;6208;48.956;9.076;2023-05-29T16:41:50;3.13;;;2.95;;
12290;SDS011;6208;48.956;9.076;2023-05-29T16:44:34;5.75;;;3.00;;
12290;SDS011;6208;48.956;9.076;2023-05-29T16:47:19;3.22;;;2.90;;
12290;SDS011;6208;48.956;9.076;2023-05-29T16:50:03;3.25;;;2.95;;
12290;SDS011;6208;48.956;9.076;2023-05-29T16:52:48;3.63;;;3.35;;
12290;SDS011;6208;48.956;9.076;2023-05-29T16:55:32;5.57;;;3.47;;
12290;SDS011;6208;48.956;9.076;2023-05-29T16:58:17;4.38;;;2.85;;
12290;SDS011;6208;48.956;9.076;2023-05-29T17:01:04;4.22;;;2.90;;
12290;SDS011;6208;48.956;9.076;2023-05-29T17:03:48;11.77;;;2.78;;
12290;SDS011;6208;48.956;9.076;2023-05-29T17:06:33;2.88;;;2.58;;
12290;SDS011;6208;48.956;9.076;2023-05-29T17:09:18;3.35;;;3.05;;
12290;SDS011;6208;48.956;9.076;2023-05-29T17:12:05;2.85;;;2.65;;
12290;SDS011;6208;48.956;9.076;2023-05-29T17:14:50;3.05;;;2.85;;
12290;SDS011;6208;48.956;9.076;2023-05-29T17:17:34;3.10;;;2.90;;
12290;SDS011;6208;48.956;9.076;2023-05-29T17:20:18;16.00;;;3.88;;
12290;SDS011;6208;48.956;9.076;2023-05-29T17:23:03;3.67;;;3.38;;
12290;SDS011;6208;48.956;9.076;2023-05-29T17:25:47;8.85;;;3.33;;
12290;SDS011;6208;48.956;9.076;2023-05-29T17:28:31;3.80;;;2.95;;
12290;SDS011;6208;48.956;9.076;2023-05-29T17:31:16;5.28;;;3.47;;
12290;SDS011;6208;48.956;9.076;2023-05-29T17:34:00;3.58;;;3.33;;
12290;SDS011;6208;48.956;9.076;2023-05-29T17:36:45;4.15;;;3.28;;
12290;SDS011;6208;48.956;9.076;2023-05-29T17:39:29;3.60;;;3.38;;
12290;SDS011;6208;48.956;9.076;2023-05-29T17:42:14;5.20;;;3.67;;
12290;SDS011;6208;48.956;9.076;2023-05-29T17:44:58;3.70;;;3.50;;
12290;SDS011;6208;48.956;9.076;2023-05-29T17:47:43;3.42;;;3.22;;
12290;SDS011;6208;48.956;9.076;2023-05-29T17:50:28;4.55;;;3.85;;
12290;SDS011;6208;48.956;9.076;2023-05-29T17:53:13;6.00;;;4.35;;
12290;SDS011;6208;48.956;9.076;2023-05-29T17:55:58;4.57;;;3.75;;
12290;SDS011;6208;48.956;9.076;2023-05-29T17:58:44;3.85;;;3.55;;
12290;SDS011;6208;48.956;9.076;2023-05-29T18:01:29;5.03;;;3.63;;
12290;SDS011;6208;48.956;9.076;2023-05-29T18:04:14;3.90;;;3.60;;
12290;SDS011;6208;48.956;9.076;2023-05-29T18:06:58;4.75;;;3.75;;
12290;SDS011;6208;48.956;9.076;2023-05-29T18:09:43;5.15;;;3.70;;
12290;SDS011;6208;48.956;9.076;2023-05-29T18:12:31;8.73;;;3.50;;
12290;SDS011;6208;48.956;9.076;2023-05-29T18:15:16;3.88;;;3.60;;
12290;SDS011;6208;48.956;9.076;2023-05-29T18:18:01;3.85;;;3.55;;
12290;SDS011;6208;48.956;9.076;2023-05-29T18:20:46;5.55;;;4.10;;
12290;SDS011;6208;48.956;9.076;2023-05-29T18:23:31;4.82;;;4.22;;
12290;SDS011;6208;48.956;9.076;2023-05-29T18:26:16;3.80;;;3.60;;
12290;SDS011;6208;48.956;9.076;2023-05-29T18:29:01;4.35;;;3.67;;
12290;SDS011;6208;48.956;9.076;2023-05-29T18:31:45;3.97;;;3.67;;
12290;SDS011;6208;48.956;9.076;2023-05-29T18:34:30;9.35;;;4.22;;
12290;SDS011;6208;48.956;9.076;2023-05-29T18:37:15;4.07;;;3.78;;
12290;SDS011;6208;48.956;9.076;2023-05-29T18:40:00;4.10;;;3.80;;
12290;SDS011;6208;48.956;9.076;2023-05-29T18:42:44;4.90;;;3.70;;
12290;SDS011;6208;48.956;9.076;2023-05-29T18:45:29;4.10;;;3.80;;
12290;SDS011;6208;48.956;9.076;2023-05-29T18:48:13;4.63;;;3.70;;
12290;SDS011;6208;48.956;9.076;2023-05-29T18:50:58;4.63;;;3.83;;
12290;SDS011;6208;48.956;9.076;2023-05-29T18:53:44;3.90;;;3.60;;
12290;SDS011;6208;48.956;9.076;2023-05-29T18:56:30;3.63;;;3.33;;
12290;SDS011;6208;48.956;9.076;2023-05-29T18:59:14;4.13;;;3.83;;
12290;SDS011;6208;48.956;9.076;2023-05-29T19:02:00;4.15;;;3.60;;
12290;SDS011;6208;48.956;9.076;2023-05-29T19:04:44;5.90;;;4.05;;
12290;SDS011;6208;48.956;9.076;2023-05-29T19:07:28;4.10;;;3.75;;
12290;SDS011;6208;48.956;9.076;2023-05-29T19:10:13;3.83;;;3.53;;
12290;SDS011;6208;48.956;9.076;2023-05-29T19:12:58;4.13;;;3.83;;
12290;SDS011;6208;48.956;9.076;2023-05-29T19:15:42;4.93;;;3.70;;
12290;SDS011;6208;48.956;9.076;2023-05-29T19:18:26;4.10;;;3.80;;
12290;SDS011;6208;48.956;9.076;2023-05-29T19:21:10;3.50;;;3.30;;
12290;SDS011;6208;48.956;9.076;2023-05-29T19:23:55;5.95;;;4.50;;
12290;SDS011;6208;48.956;9.076;2023-05-29T19:26:40;4.13;;;3.78;;
12290;SDS011;6208;48.956;9.076;2023-05-29T19:29:25;4.25;;;3.83;;
12290;SDS011;6208;48.956;9.076;2023-05-29T19:32:10;5.35;;;4.20;;
12290;SDS011;6208;48.956;9.076;2023-05-29T19:34:55;4.22;;;3.92;;
12290;SDS011;6208;48.956;9.076;2023-05-29T19:37:39;10.00;;;4.38;;
12290;SDS011;6208;48.956;9.076;2023-05-29T19:40:23;5.38;;;4.00;;
12290;SDS011;6208;48.956;9.076;2023-05-29T19:43:08;5.10;;;3.50;;
12290;SDS011;6208;48.956;9.076;2023-05-29T19:45:54;4.45;;;4.07;;
12290;SDS011;6208;48.956;9.076;2023-05-29T19:48:39;6.72;;;4.30;;
12290;SDS011;6208;48.956;9.076;2023-05-29T19:51:23;4.85;;;4.45;;
12290;SDS011;6208;48.956;9.076;2023-05-29T19:54:08;4.65;;;4.25;;
12290;SDS011;6208;48.956;9.076;2023-05-29T19:56:53;4.28;;;3.97;;
12290;SDS011;6208;48.956;9.076;2023-05-29T19:59:38;7.40;;;3.97;;
12290;SDS011;6208;48.956;9.076;2023-05-29T20:02:26;5.55;;;4.30;;
12290;SDS011;6208;48.956;9.076;2023-05-29T20:05:16;4.40;;;4.00;;
12290;SDS011;6208;48.956;9.076;2023-05-29T20:08:00;4.65;;;4.13;;
12290;SDS011;6208;48.956;9.076;2023-05-29T20:10:44;7.32;;;4.43;;
12290;SDS011;6208;48.956;9.076;2023-05-29T20:13:29;4.78;;;4.38;;
12290;SDS011;6208;48.956;9.076;2023-05-29T20:16:14;4.28;;;3.75;;
12290;SDS011;6208;48.956;9.076;2023-05-29T20:18:58;3.92;;;3.63;;
12290;SDS011;6208;48.956;9.076;2023-05-29T20:21:43;5.95;;;4.18;;
12290;SDS011;6208;48.956;9.076;2023-05-29T20:24:27;4.30;;;3.90;;
12290;SDS011;6208;48.956;9.076;2023-05-29T20:27:12;9.23;;;4.60;;
12290;SDS011;6208;48.956;9.076;2023-05-29T20:29:56;4.65;;;3.83;;
12290;SDS011;6208;48.956;9.076;2023-05-29T20:32:40;5.25;;;4.10;;
12290;SDS011;6208;48.956;9.076;2023-05-29T20:35:25;5.28;;;3.85;;
12290;SDS011;6208;48.956;9.076;2023-05-29T20:38:09;4.30;;;3.92;;
12290;SDS011;6208;48.956;9.076;2023-05-29T20:40:57;7.55;;;4.10;;
12290;SDS011;6208;48.956;9.076;2023-05-29T20:43:43;4.25;;;3.85;;
12290;SDS011;6208;48.956;9.076;2023-05-29T20:46:32;3.53;;;3.30;;
12290;SDS011;6208;48.956;9.076;2023-05-29T20:49:20;4.43;;;3.55;;
12290;SDS011;6208;48.956;9.076;2023-05-29T20:52:04;4.95;;;4.15;;
12290;SDS011;6208;48.956;9.076;2023-05-29T20:54:49;7.28;;;4.05;;
12290;SDS011;6208;48.956;9.076;2023-05-29T20:57:34;4.32;;;3.90;;
12290;SDS011;6208;48.956;9.076;2023-05-29T21:00:18;3.97;;;3.60;;
12290;SDS011;6208;48.956;9.076;2023-05-29T21:03:02;4.10;;;3.63;;
12290;SDS011;6208;48.956;9.076;2023-05-29T21:05:47;4.30;;;3.90;;
12290;SDS011;6208;48.956;9.076;2023-05-29T21:08:31;4.68;;;3.55;;
12290;SDS011;6208;48.956;9.076;2023-05-29T21:11:15;4.00;;;3.30;;
12290;SDS011;6208;48.956;9.076;2023-05-29T21:14:00;4.13;;;3.72;;
12290;SDS011;6208;48.956;9.076;2023-05-29T21:16:44;3.35;;;3.10;;